Here is the Quick Look data you requested

The Data originates at the National Weather Service, and is made available here by the UAlbany Department of Atmospheric and Environmental Sciences

Surface Observations

KCBE 240345Z AUTO 00000KT 10SM CLR 19/17 A2997 RMK AO2 T01860168=
KCBE 240405Z AUTO 00000KT 10SM CLR 18/17 A2997 RMK AO2 T01850168=
KCBE 240425Z AUTO 00000KT 10SM CLR 18/17 A2997 RMK AO2 T01810169=
KCBE 240445Z AUTO 00000KT 10SM CLR 18/16 A2997 RMK AO2 T01790164=
KCBE 240505Z AUTO 00000KT 10SM CLR 17/16 A2996 RMK AO2 T01740164=
KCBE 240525Z AUTO 02006KT 10SM CLR 17/16 A2996 RMK AO2 T01730164=
KCBE 240545Z AUTO 01006KT 10SM CLR 18/16 A2996 RMK AO2 T01810162 10254 20173=
KCBE 240605Z AUTO 00000KT 7SM CLR 17/16 A2995 RMK AO2 T01690160=
KCBE 240625Z AUTO 00000KT 7SM BR CLR 17/16 A2995 RMK AO2 T01680161=
KCBE 240645Z AUTO 33004KT 10SM CLR 17/16 A2995 RMK AO2 T01730163=
KCBE 240705Z AUTO 05003KT 7SM CLR 17/16 A2995 RMK AO2 T01690158=
KCBE 240725Z AUTO 00000KT 5SM BR CLR 16/16 A2995 RMK AO2 T01650157=
KCBE 240745Z AUTO 00000KT 7SM BR CLR 16/16 A2995 RMK AO2 T01650158=
KCBE 240805Z AUTO 00000KT 7SM CLR 16/16 A2995 RMK AO2 T01650158=
KCBE 240825Z AUTO 00000KT 7SM CLR 17/16 A2995 RMK AO2 T01660158=
KCBE 240845Z AUTO 00000KT 10SM CLR 16/16 A2995 RMK AO2 T01650157=
KCBE 240905Z AUTO 00000KT 5SM BR CLR 16/15 A2995 RMK AO2 T01610154=
KCBE 240925Z AUTO 00000KT 7SM BR CLR 16/15 A2995 RMK AO2 T01610155=
KCBE 240945Z AUTO 00000KT 7SM BR CLR 16/15 A2996 RMK AO2 T01610155=
KCBE 241005Z AUTO 03003KT 7SM CLR 16/15 A2996 RMK AO2 T01620155=
KCBE 241025Z AUTO 03003KT 10SM CLR 17/16 A2997 RMK AO2 T01660158=
KCBE 241045Z AUTO 00000KT 5SM BR CLR 16/16 A2997 RMK AO2 T01640156=
KCBE 241105Z AUTO 00000KT 7SM CLR 17/16 A2997 RMK AO2 T01690160=
KCBE 241125Z AUTO 06003KT 10SM SCT110 17/16 A2998 RMK AO2 T01700158=
KCBE 241145Z AUTO 00000KT 10SM CLR 17/16 A2999 RMK AO2 T01750161 10181 20160=
KCBE 241205Z AUTO 00000KT 10SM BKN120 18/16 A2998 RMK AO2 T01770162=
KCBE 241225Z AUTO 35003KT 10SM OVC120 18/16 A2999 RMK AO2 T01780163=
KCBE 241245Z AUTO 05006KT 10SM OVC110 18/16 A2998 RMK AO2 T01810163=
KCBE 241305Z AUTO 04003KT 10SM SCT120 19/17 A2998 RMK AO2 T01870166=
KCBE 241325Z AUTO 00000KT 10SM CLR 19/17 A2998 RMK AO2 T01930167=
KCBE 241345Z AUTO 00000KT 10SM SCT110 21/17 A2998 RMK AO2 T02060173=
KCBE 241405Z AUTO 00000KT 10SM SCT110 22/18 A2998 RMK AO2 T02160176=
KCBE 241425Z AUTO 23003KT 10SM CLR 23/18 A2997 RMK AO2 T02320181=
KCBE 241445Z AUTO 15003KT 10SM CLR 23/18 A2997 RMK AO2 T02340178=
KCBE 241505Z AUTO 23005KT 10SM SCT055 24/18 A2997 RMK AO2 T02420179=
KCBE 241525Z AUTO 23004KT 10SM SCT055 SCT100 25/17 A2997 RMK AO2 T02470173=
KCBE 241545Z AUTO 23005KT 10SM SCT100 25/16 A2996 RMK AO2 T02500165=
KCBE 241605Z AUTO 22004KT 10SM CLR 25/16 A2995 RMK AO2 T02550157=
KCBE 241625Z AUTO 21006KT 10SM CLR 26/14 A2995 RMK AO2 T02620144=
KCBE 241645Z AUTO 22006KT 10SM SCT044 27/14 A2994 RMK AO2 T02710144=
KCBE 241705Z AUTO 16003KT 10SM CLR 27/14 A2993 RMK AO2 T02660142=
KCBE 241725Z AUTO 26003KT 10SM CLR 27/14 A2993 RMK AO2 T02680143=
KCBE 241745Z AUTO 22003KT 10SM CLR 27/15 A2993 RMK AO2 T02690146 10272 20175=
KCBE 241805Z AUTO 23005KT 7SM CLR 27/15 A2991 RMK AO2 T02750148=
KCBE 241825Z AUTO 15005KT 10SM CLR 28/14 A2991 RMK AO2 T02760144=
KCBE 241845Z AUTO 17003KT 10SM CLR 28/14 A2991 RMK AO2 T02770140=
KCBE 241905Z AUTO 18005KT 10SM CLR 28/16 A2992 RMK AO2 T02840156=
KCBE 241925Z AUTO 23005KT 10SM SCT070 SCT120 28/16 A2991 RMK AO2 T02800164=
KCBE 241945Z AUTO 19003KT 10SM BKN060 BKN120 28/16 A2990 RMK AO2 T02780158=
KCBE 242005Z AUTO 00000KT 10SM BKN060 BKN070 BKN120 27/15 A2990 RMK AO2
 T02700148=
KCBE 242025Z AUTO 06008KT 10SM BKN060 OVC070 25/17 A2990 RMK AO2 T02460167=
KCBE 242045Z AUTO 05006KT 10SM SCT060 SCT070 SCT120 26/18 A2990 RMK AO2
 T02610182=
KCBE 242105Z AUTO 11003KT 10SM CLR 27/18 A2990 RMK AO2 T02700181=
KCBE 242125Z AUTO 00000KT 10SM CLR 27/17 A2989 RMK AO2 T02720169=
KCBE 242145Z AUTO 17003KT 10SM SCT070 SCT080 27/17 A2989 RMK AO2 T02710174=
KCBE 242205Z AUTO 19004KT 10SM CLR 25/18 A2989 RMK AO2 T02520184=
KCBE 242225Z AUTO 17004KT 10SM CLR 26/18 A2988 RMK AO2 T02580178=
KCBE 242245Z AUTO 19004KT 10SM CLR 26/18 A2988 RMK AO2 T02570179=
KCBE 242305Z AUTO 20003KT 10SM CLR 25/18 A2988 RMK AO2 T02540181=
KCBE 242325Z AUTO 00000KT 10SM CLR 25/18 A2988 RMK AO2 T02490181=
KCBE 242345Z AUTO 20003KT 10SM CLR 24/18 A2989 RMK AO2 T02370183 10286 20237
 402860160=
KCBE 250005Z AUTO 15003KT 10SM CLR 23/18 A2989 RMK AO2 T02340185=
KCBE 250025Z AUTO 19003KT 10SM CLR 23/18 A2989 RMK AO2 T02280183=
KCBE 250045Z AUTO 21004KT 10SM CLR 22/19 A2991 RMK AO2 T02210186=
KCBE 250105Z AUTO 00000KT 10SM CLR 21/18 A2991 RMK AO2 T02150184=
KCBE 250125Z AUTO 00000KT 10SM BKN080 21/18 A2992 RMK AO2 T02110184=
KCBE 250145Z AUTO 07003KT 10SM OVC080 21/18 A2993 RMK AO2 T02100184=
KCBE 250205Z AUTO 00000KT 10SM BKN080 21/18 A2993 RMK AO2 T02060181=
KCBE 250225Z AUTO 04004KT 10SM SCT075 BKN085 20/18 A2993 RMK AO2 T02020180=
KCBE 250245Z AUTO 00000KT 10SM SCT075 SCT090 20/18 A2993 RMK AO2 T01960179=
KCBE 250305Z AUTO 00000KT 10SM SCT080 SCT090 19/18 A2994 RMK AO2 T01940180=
KCBE 250325Z AUTO 00000KT 10SM CLR 19/18 A2993 RMK AO2 T01900178=
KCBE 250345Z AUTO 00000KT 10SM CLR 18/18 A2994 RMK AO2 T01850175=
KCBE 250405Z AUTO 00000KT 10SM CLR 18/17 A2995 RMK AO2 T01830175=
KCBE 250425Z AUTO 00000KT 10SM CLR 18/18 A2995 RMK AO2 T01840177=
KCBE 250445Z AUTO 10003KT 10SM CLR 18/17 A2994 RMK AO2 T01790171=
KCBE 250505Z AUTO 03004KT 10SM CLR 18/17 A2994 RMK AO2 T01760168=
KCBE 250525Z AUTO 01005KT 10SM CLR 18/17 A2994 RMK AO2 T01760169=
KCBE 250545Z AUTO 05003KT 10SM CLR 18/17 A2993 RMK AO2 T01780168 10239 20174=
KCBE 250605Z AUTO 02005KT 10SM CLR 17/16 A2992 RMK AO2 T01730165=
KCBE 250625Z AUTO 00000KT 10SM CLR 17/16 A2992 RMK AO2 T01730164=
KCBE 250645Z AUTO 00000KT 5SM BR CLR 17/16 A2992 RMK AO2 T01690162=
KCBE 250705Z AUTO 01004KT 7SM BR CLR 17/16 A2992 RMK AO2 T01670161=
KCBE 250725Z AUTO 01003KT 10SM CLR 17/16 A2992 RMK AO2 T01680161=
KCBE 250745Z AUTO 00000KT 1 3/4SM BR SCT003 16/16 A2992 RMK AO2 T01640157=
KCBE 250805Z AUTO 00000KT 1 1/4SM BR BKN003 16/16 A2991 RMK AO2 T01630158=
KCBE 250825Z AUTO 00000KT 5SM BR BKN080 16/16 A2991 RMK AO2 T01610156=
KCBE 250845Z AUTO 00000KT 5SM BR SCT080 16/15 A2991 RMK AO2 T01570152=
KCBE 250905Z AUTO 34003KT 5SM BR CLR 16/15 A2991 RMK AO2 T01580153=
KCBE 250925Z AUTO 00000KT 7SM BR CLR 16/15 A2991 RMK AO2 T01570152=
KCBE 250945Z AUTO 03003KT 5SM BR SCT003 16/15 A2991 RMK AO2 T01580153=
KCBE 251005Z AUTO 04005KT 3 1/2SM BR OVC003 16/16 A2992 RMK AO2 T01610156=
KCBE 251025Z AUTO 03004KT 4SM BR BKN003 OVC007 16/16 A2993 RMK AO2 T01610156=